createdAt,value
2022-12-27T00:00:28.283Z,41.50
2022-12-27T00:01:28.204Z,52.47
2022-12-27T00:02:28.237Z,47.68
2022-12-27T00:03:28.189Z,41.51
2022-12-27T00:04:28.182Z,43.38
2022-12-27T00:05:28.200Z,39.94
2022-12-27T00:06:28.165Z,39.96
2022-12-27T00:07:28.167Z,47.17
2022-12-27T00:08:28.154Z,48.59
2022-12-27T00:09:28.141Z,46.39
2022-12-27T00:10:28.162Z,41.10
2022-12-27T00:11:28.134Z,46.94
2022-12-27T00:12:28.115Z,46.01
2022-12-27T00:13:28.109Z,51.48
2022-12-27T00:14:28.103Z,41.11
2022-12-27T00:15:28.116Z,40.32
2022-12-27T00:16:28.101Z,43.45
2022-12-27T00:17:28.079Z,53.87
2022-12-27T00:18:28.066Z,41.95
2022-12-27T00:19:28.064Z,40.66
2022-12-27T00:20:28.082Z,41.11
2022-12-27T00:21:28.042Z,44.71
2022-12-27T00:22:28.034Z,46.14
2022-12-27T00:23:28.027Z,48.76
2022-12-27T00:24:28.019Z,51.16
2022-12-27T00:25:28.048Z,42.34
2022-12-27T00:26:28.015Z,47.06
2022-12-27T00:27:28.001Z,41.16
2022-12-27T00:28:27.992Z,52.37
2022-12-27T00:29:27.983Z,49.54
2022-12-27T00:30:27.999Z,46.62
2022-12-27T00:31:28.015Z,41.14
2022-12-27T00:32:27.972Z,53.14
2022-12-27T00:33:27.955Z,49.82
2022-12-27T00:34:27.946Z,41.36
2022-12-27T00:35:28.344Z,51.96
2022-12-27T00:36:27.930Z,58.16
2022-12-27T00:37:27.922Z,58.11
2022-12-27T00:38:27.919Z,60.71
2022-12-27T00:39:27.903Z,45.97
2022-12-27T00:40:27.926Z,41.22
2022-12-27T00:41:27.903Z,42.78
2022-12-27T00:42:27.890Z,58.93
2022-12-27T00:43:27.877Z,48.22
2022-12-27T00:44:27.868Z,48.87
2022-12-27T00:45:27.909Z,44.66
2022-12-27T00:46:27.851Z,56.31
2022-12-27T00:47:27.842Z,48.01
2022-12-27T00:48:27.838Z,51.07
2022-12-27T00:49:27.831Z,49.62
2022-12-27T00:50:27.849Z,54.97
2022-12-27T00:51:27.818Z,46.42
2022-12-27T00:52:27.805Z,50.21
2022-12-27T00:53:27.803Z,42.91
2022-12-27T00:54:27.797Z,45.88
2022-12-27T00:55:27.808Z,44.42
2022-12-27T00:56:27.786Z,48.66
2022-12-27T00:57:27.770Z,45.71
2022-12-27T00:58:27.765Z,45.44
2022-12-27T00:59:27.758Z,45.51
2022-12-27T01:00:27.776Z,61.29
2022-12-27T01:01:27.856Z,47.75
2022-12-27T01:02:27.730Z,41.65
2022-12-27T01:03:27.752Z,40.81
2022-12-27T01:04:27.718Z,47.56
2022-12-27T01:05:27.736Z,47.68
2022-12-27T01:06:27.699Z,50.06
2022-12-27T01:07:27.696Z,42.95
2022-12-27T01:08:27.685Z,43.73
2022-12-27T01:09:27.677Z,44.86
2022-12-27T01:10:27.695Z,50.41
2022-12-27T01:11:27.662Z,48.65
2022-12-27T01:12:27.651Z,51.32
2022-12-27T01:13:27.647Z,43.83
2022-12-27T01:14:27.635Z,43.61
2022-12-27T01:15:27.656Z,51.19
2022-12-27T01:16:27.656Z,52.53
2022-12-27T01:17:27.616Z,46.53
2022-12-27T01:18:27.632Z,42.59
2022-12-27T01:19:27.610Z,47.18
2022-12-27T01:20:27.630Z,47.69
2022-12-27T01:21:27.579Z,41.18
2022-12-27T01:22:27.578Z,46.21
2022-12-27T01:23:27.571Z,50.78
2022-12-27T01:24:27.560Z,55.98
2022-12-27T01:25:27.597Z,58.06
2022-12-27T01:26:27.559Z,42.74
2022-12-27T01:27:27.539Z,45.09
2022-12-27T01:28:27.536Z,46.05
2022-12-27T01:29:27.526Z,45.23
2022-12-27T01:30:27.558Z,45.90
2022-12-27T01:31:28.568Z,51.38
2022-12-27T01:32:27.497Z,45.32
2022-12-27T01:33:27.491Z,50.88
2022-12-27T01:34:27.491Z,45.20
2022-12-27T01:35:27.504Z,41.41
2022-12-27T01:36:27.466Z,41.36
2022-12-27T01:37:27.459Z,42.71
2022-12-27T01:38:27.449Z,45.78
2022-12-27T01:39:27.445Z,52.50
2022-12-27T01:40:27.463Z,47.06
2022-12-27T01:41:27.431Z,51.04
2022-12-27T01:42:27.420Z,50.52
2022-12-27T01:43:27.413Z,43.27
2022-12-27T01:44:27.408Z,44.91
2022-12-27T01:45:27.481Z,56.83
2022-12-27T01:46:27.392Z,53.17
2022-12-27T01:47:27.402Z,43.83
2022-12-27T01:48:27.376Z,44.75
2022-12-27T01:49:27.368Z,41.64
2022-12-27T01:50:27.389Z,52.01
2022-12-27T01:51:27.350Z,45.07
2022-12-27T01:52:27.342Z,52.25
2022-12-27T01:53:27.333Z,46.38
2022-12-27T01:54:27.334Z,47.61
2022-12-27T01:55:27.353Z,58.38
2022-12-27T01:56:27.301Z,41.69
2022-12-27T01:57:28.300Z,44.00
2022-12-27T01:58:27.309Z,42.19
2022-12-27T01:59:27.286Z,53.83
2022-12-27T02:00:27.311Z,41.64
2022-12-27T02:01:27.429Z,40.28
2022-12-27T02:02:27.363Z,48.59
2022-12-27T02:03:27.260Z,44.21
2022-12-27T02:04:27.250Z,47.74
2022-12-27T02:05:27.274Z,53.72
2022-12-27T02:06:27.234Z,42.82
2022-12-27T02:07:27.229Z,56.66
2022-12-27T02:08:27.216Z,44.44
2022-12-27T02:09:27.214Z,54.29
2022-12-27T02:10:27.234Z,43.83
2022-12-27T02:11:27.195Z,53.28
2022-12-27T02:12:27.185Z,50.39
2022-12-27T02:13:27.181Z,46.16
2022-12-27T02:14:28.334Z,48.60
2022-12-27T02:15:28.192Z,52.41
2022-12-27T02:16:28.165Z,58.43
2022-12-27T02:17:27.153Z,44.15
2022-12-27T02:18:27.141Z,52.57
2022-12-27T02:19:27.137Z,48.59
2022-12-27T02:20:27.129Z,49.61
2022-12-27T02:21:27.142Z,41.22
2022-12-27T02:22:27.113Z,40.58
2022-12-27T02:23:27.118Z,47.38
2022-12-27T02:24:27.093Z,53.77
2022-12-27T02:25:27.085Z,41.47
2022-12-27T02:26:27.120Z,44.07
2022-12-27T02:27:27.078Z,51.96
2022-12-27T02:28:27.074Z,50.06
2022-12-27T02:29:27.079Z,41.08
2022-12-27T02:30:27.096Z,40.84
2022-12-27T02:31:27.068Z,50.59
2022-12-27T02:32:27.037Z,52.99
2022-12-27T02:33:27.028Z,53.29
2022-12-27T02:34:27.020Z,42.81
2022-12-27T02:35:27.007Z,40.87
2022-12-27T02:36:27.027Z,40.63
2022-12-27T02:37:26.993Z,43.55
2022-12-27T02:38:26.987Z,55.09
2022-12-27T02:39:26.982Z,48.42
2022-12-27T02:40:26.971Z,54.38
2022-12-27T02:41:26.987Z,56.11
2022-12-27T02:42:26.960Z,45.67
2022-12-27T02:43:26.956Z,50.06
2022-12-27T02:44:26.941Z,45.88
2022-12-27T02:45:26.939Z,44.68
2022-12-27T02:46:27.000Z,52.83
2022-12-27T02:47:26.917Z,45.96
2022-12-27T02:48:26.910Z,55.21
2022-12-27T02:49:26.907Z,52.37
2022-12-27T02:50:26.905Z,52.24
2022-12-27T02:51:26.914Z,45.80
2022-12-27T02:52:26.884Z,50.14
2022-12-27T02:53:26.891Z,46.86
2022-12-27T02:54:26.866Z,55.88
2022-12-27T02:55:26.860Z,50.15
2022-12-27T02:56:26.890Z,50.78
2022-12-27T02:57:26.858Z,52.61
2022-12-27T02:58:26.819Z,54.41
2022-12-27T02:59:27.834Z,55.29
2022-12-27T03:00:26.825Z,58.59
2022-12-27T03:01:26.961Z,54.04
2022-12-27T03:02:26.954Z,55.43
2022-12-27T03:03:26.800Z,52.88
2022-12-27T03:04:26.786Z,58.49
2022-12-27T03:05:26.785Z,52.50
2022-12-27T03:06:26.805Z,46.66
2022-12-27T03:07:26.782Z,47.52
2022-12-27T03:08:26.766Z,50.25
2022-12-27T03:09:26.758Z,45.39
2022-12-27T03:10:26.764Z,48.24
2022-12-27T03:11:26.743Z,49.35
2022-12-27T03:12:27.762Z,50.64
2022-12-27T03:13:26.729Z,62.31
2022-12-27T03:14:26.719Z,53.77
2022-12-27T03:15:30.487Z,45.60
2022-12-27T03:16:28.742Z,42.55
2022-12-27T03:17:26.732Z,45.77
2022-12-27T03:18:26.697Z,47.70
2022-12-27T03:19:26.683Z,40.42
2022-12-27T03:20:26.695Z,48.85
2022-12-27T03:21:26.684Z,55.36
2022-12-27T03:22:26.681Z,61.20
2022-12-27T03:23:26.651Z,44.89
2022-12-27T03:24:26.648Z,51.41
2022-12-27T03:25:26.641Z,51.99
2022-12-27T03:26:26.632Z,43.58
2022-12-27T03:27:26.647Z,40.48
2022-12-27T03:28:26.633Z,40.74
2022-12-27T03:29:26.605Z,51.01
2022-12-27T03:30:26.601Z,48.72
2022-12-27T03:31:26.594Z,55.01
2022-12-27T03:32:26.612Z,50.88
2022-12-27T03:33:26.584Z,49.08
2022-12-27T03:34:26.577Z,51.12
2022-12-27T03:35:26.574Z,61.13
2022-12-27T03:36:26.565Z,47.00
2022-12-27T03:37:26.575Z,46.37
2022-12-27T03:38:26.550Z,52.35
2022-12-27T03:39:26.544Z,52.78
2022-12-27T03:40:26.529Z,41.69
2022-12-27T03:41:26.571Z,55.20
2022-12-27T03:42:26.559Z,55.99
2022-12-27T03:43:26.503Z,53.43
2022-12-27T03:44:27.497Z,53.81
2022-12-27T03:45:26.493Z,43.13
2022-12-27T03:46:26.536Z,52.50
2022-12-27T03:47:26.511Z,49.15
2022-12-27T03:48:26.467Z,47.81
2022-12-27T03:49:26.474Z,52.66
2022-12-27T03:50:26.456Z,42.10
2022-12-27T03:51:26.483Z,47.08
2022-12-27T03:52:26.474Z,56.47
2022-12-27T03:53:26.423Z,53.89
2022-12-27T03:54:26.584Z,53.17
2022-12-27T03:55:33.002Z,57.15
2022-12-27T03:56:28.408Z,53.45
2022-12-27T03:57:26.405Z,50.48
2022-12-27T03:58:26.416Z,54.70
2022-12-27T03:59:26.386Z,53.79
2022-12-27T04:00:26.377Z,53.25
2022-12-27T04:01:26.474Z,57.99
2022-12-27T04:02:26.578Z,62.15
2022-12-27T04:03:26.514Z,59.80
2022-12-27T04:04:26.359Z,56.51
2022-12-27T04:05:26.340Z,49.75
2022-12-27T04:06:26.332Z,55.73
2022-12-27T04:07:26.324Z,55.74
2022-12-27T04:08:26.344Z,50.53
2022-12-27T04:09:26.307Z,47.02
2022-12-27T04:10:26.302Z,51.93
2022-12-27T04:11:26.294Z,54.02
2022-12-27T04:12:26.289Z,53.04
2022-12-27T04:13:26.306Z,53.21
2022-12-27T04:14:26.281Z,57.20
2022-12-27T04:15:26.259Z,57.17
2022-12-27T04:16:26.315Z,58.25
2022-12-27T04:17:26.244Z,56.29
2022-12-27T04:18:26.260Z,50.49
2022-12-27T04:19:26.226Z,55.99
2022-12-27T04:20:26.213Z,58.52
2022-12-27T04:21:26.211Z,59.62
2022-12-27T04:22:26.208Z,56.80
2022-12-27T04:23:26.220Z,52.28
2022-12-27T04:24:26.198Z,55.02
2022-12-27T04:25:26.177Z,52.85
2022-12-27T04:26:26.178Z,58.02
2022-12-27T04:27:26.174Z,56.80
2022-12-27T04:28:26.228Z,58.51
2022-12-27T04:29:26.158Z,59.69
2022-12-27T04:30:26.143Z,55.59
2022-12-27T04:31:26.218Z,45.33
2022-12-27T04:32:26.126Z,53.22
2022-12-27T04:33:26.155Z,54.46
2022-12-27T04:34:26.110Z,60.35
2022-12-27T04:35:26.103Z,59.11
2022-12-27T04:36:26.090Z,57.05
2022-12-27T04:37:26.090Z,61.57
2022-12-27T04:38:26.109Z,56.08
2022-12-27T04:39:26.076Z,53.73
2022-12-27T04:40:26.065Z,56.95
2022-12-27T04:41:26.055Z,58.61
2022-12-27T04:42:26.059Z,51.87
2022-12-27T04:43:26.051Z,53.99
2022-12-27T04:44:26.054Z,58.55
2022-12-27T04:45:26.027Z,53.84
2022-12-27T04:46:26.046Z,49.66
2022-12-27T04:47:26.018Z,51.86
2022-12-27T04:48:25.998Z,61.89
2022-12-27T04:49:26.031Z,50.82
2022-12-27T04:50:25.999Z,57.53
2022-12-27T04:51:25.987Z,53.93
2022-12-27T04:52:25.976Z,51.20
2022-12-27T04:53:25.958Z,55.37
2022-12-27T04:54:25.990Z,56.15
2022-12-27T04:55:25.944Z,49.79
2022-12-27T04:56:25.934Z,52.11
2022-12-27T04:57:25.942Z,50.38
2022-12-27T04:58:25.938Z,50.73
2022-12-27T04:59:25.949Z,54.31
2022-12-27T05:00:25.917Z,58.49
2022-12-27T05:01:26.002Z,53.38
2022-12-27T05:02:26.062Z,52.55
2022-12-27T05:03:25.940Z,53.13
2022-12-27T05:04:25.915Z,55.26
2022-12-27T05:05:25.862Z,56.75
2022-12-27T05:06:25.882Z,55.61
2022-12-27T05:07:25.850Z,49.61
2022-12-27T05:08:25.850Z,57.25
2022-12-27T05:09:25.838Z,56.43
2022-12-27T05:10:25.866Z,54.15
2022-12-27T05:11:25.826Z,52.63
2022-12-27T05:12:25.818Z,60.97
2022-12-27T05:13:25.819Z,53.82
2022-12-27T05:14:25.799Z,49.56
2022-12-27T05:15:25.833Z,53.60
2022-12-27T05:16:25.864Z,54.20
2022-12-27T05:17:25.766Z,51.55
2022-12-27T05:18:26.771Z,54.00
2022-12-27T05:19:25.775Z,53.88
2022-12-27T05:20:25.785Z,57.39
2022-12-27T05:21:25.762Z,53.71
2022-12-27T05:22:25.744Z,54.35
2022-12-27T05:23:25.761Z,53.57
2022-12-27T05:24:25.728Z,50.40
2022-12-27T05:25:25.718Z,59.63
2022-12-27T05:26:25.707Z,57.10
2022-12-27T05:27:25.701Z,53.87
2022-12-27T05:28:25.745Z,50.82
2022-12-27T05:29:25.685Z,52.59
2022-12-27T05:30:25.676Z,52.23
2022-12-27T05:31:25.699Z,53.66
2022-12-27T05:32:25.659Z,53.12
2022-12-27T05:33:25.692Z,60.20
2022-12-27T05:34:25.656Z,59.22
2022-12-27T05:35:25.639Z,57.56
2022-12-27T05:36:25.655Z,51.70
2022-12-27T05:37:25.616Z,45.61
2022-12-27T05:38:25.672Z,58.94
2022-12-27T05:39:25.624Z,57.70
2022-12-27T05:40:25.597Z,53.35
2022-12-27T05:41:25.594Z,57.30
2022-12-27T05:42:25.589Z,58.04
2022-12-27T05:43:25.580Z,54.77
2022-12-27T05:44:25.593Z,58.64
2022-12-27T05:45:25.555Z,55.45
2022-12-27T05:46:25.591Z,55.76
2022-12-27T05:47:25.547Z,58.97
2022-12-27T05:48:25.546Z,58.49
2022-12-27T05:49:25.555Z,58.40
2022-12-27T05:50:25.520Z,56.69
2022-12-27T05:51:25.512Z,60.74
2022-12-27T05:52:25.509Z,57.07
2022-12-27T05:53:25.495Z,54.81
2022-12-27T05:54:25.520Z,57.32
2022-12-27T05:55:25.483Z,56.29
2022-12-27T05:56:25.474Z,54.72
2022-12-27T05:57:25.463Z,55.14
2022-12-27T05:58:25.469Z,55.57
2022-12-27T05:59:25.471Z,56.94
2022-12-27T06:00:25.441Z,52.55
2022-12-27T06:01:25.468Z,56.71
2022-12-27T06:02:25.512Z,58.01
2022-12-27T06:03:25.495Z,55.48
2022-12-27T06:04:25.437Z,52.35
2022-12-27T06:05:25.397Z,51.64
2022-12-27T06:06:25.392Z,54.72
2022-12-27T06:07:25.382Z,55.65
2022-12-27T06:08:25.370Z,59.10
2022-12-27T06:09:25.395Z,55.33
2022-12-27T06:10:25.371Z,55.22
2022-12-27T06:11:25.358Z,56.79
2022-12-27T06:12:25.351Z,56.19
2022-12-27T06:13:25.348Z,57.00
2022-12-27T06:14:25.362Z,57.15
2022-12-27T06:15:25.320Z,55.81
2022-12-27T06:16:25.340Z,55.37
2022-12-27T06:17:25.303Z,57.47
2022-12-27T06:18:25.298Z,53.19
2022-12-27T06:19:25.332Z,54.43
2022-12-27T06:20:25.285Z,58.69
2022-12-27T06:21:25.274Z,55.02
2022-12-27T06:22:25.270Z,57.15
2022-12-27T06:23:25.269Z,54.63
2022-12-27T06:24:25.244Z,56.30
2022-12-27T06:25:25.289Z,57.73
2022-12-27T06:26:25.237Z,54.02
2022-12-27T06:27:25.226Z,59.59
2022-12-27T06:28:25.216Z,53.33
2022-12-27T06:29:25.216Z,53.61
2022-12-27T06:30:25.228Z,56.97
2022-12-27T06:31:25.237Z,56.14
2022-12-27T06:32:25.181Z,57.39
2022-12-27T06:33:25.273Z,57.19
2022-12-27T06:34:25.178Z,58.49
2022-12-27T06:35:25.189Z,57.09
2022-12-27T06:36:25.151Z,53.95
2022-12-27T06:37:25.142Z,55.29
2022-12-27T06:38:25.135Z,56.26
2022-12-27T06:39:25.128Z,49.12
2022-12-27T06:40:25.145Z,56.00
2022-12-27T06:41:25.111Z,56.68
2022-12-27T06:42:25.107Z,56.54
2022-12-27T06:43:25.097Z,55.20
2022-12-27T06:44:25.091Z,58.78
2022-12-27T06:45:25.200Z,54.46
2022-12-27T06:46:25.178Z,55.76
2022-12-27T06:47:25.069Z,56.57
2022-12-27T06:48:25.072Z,55.20
2022-12-27T06:49:25.054Z,57.24
2022-12-27T06:50:25.081Z,54.74
2022-12-27T06:51:25.047Z,53.04
2022-12-27T06:52:25.033Z,54.75
2022-12-27T06:53:25.026Z,55.59
2022-12-27T06:54:26.040Z,58.88
2022-12-27T06:55:25.008Z,53.27
2022-12-27T06:56:25.038Z,52.55
2022-12-27T06:57:24.985Z,54.79
2022-12-27T06:58:24.982Z,56.82
2022-12-27T06:59:24.972Z,52.52
2022-12-27T07:00:24.962Z,51.02
2022-12-27T07:01:25.047Z,58.44
2022-12-27T07:02:25.099Z,57.14
2022-12-27T07:03:24.944Z,55.20
2022-12-27T07:04:24.931Z,56.51
2022-12-27T07:05:24.924Z,54.80
2022-12-27T07:06:24.985Z,54.88
2022-12-27T07:07:24.911Z,57.23
2022-12-27T07:08:24.899Z,55.99
2022-12-27T07:09:24.896Z,54.60
2022-12-27T07:10:24.889Z,54.62
2022-12-27T07:11:24.903Z,61.73
2022-12-27T07:12:24.873Z,56.66
2022-12-27T07:13:24.840Z,54.47
2022-12-27T07:14:25.871Z,51.46
2022-12-27T07:15:24.867Z,54.51
2022-12-27T07:16:24.952Z,55.40
2022-12-27T07:17:24.826Z,53.78
2022-12-27T07:18:24.820Z,55.78
2022-12-27T07:19:24.809Z,53.51
2022-12-27T07:20:24.806Z,58.86
2022-12-27T07:21:24.793Z,57.94
2022-12-27T07:22:24.811Z,56.77
2022-12-27T07:23:24.775Z,55.78
2022-12-27T07:24:24.849Z,57.66
2022-12-27T07:25:24.764Z,55.75
2022-12-27T07:26:24.756Z,56.02
2022-12-27T07:27:24.772Z,56.48
2022-12-27T07:28:24.748Z,57.75
2022-12-27T07:29:24.725Z,53.44
2022-12-27T07:30:24.719Z,53.70
2022-12-27T07:31:24.786Z,50.81
2022-12-27T07:32:24.729Z,52.51
2022-12-27T07:33:24.705Z,55.73
2022-12-27T07:34:24.692Z,53.91
2022-12-27T07:35:24.687Z,55.23
2022-12-27T07:36:24.684Z,53.95
2022-12-27T07:37:24.693Z,60.01
2022-12-27T07:38:24.662Z,54.55
2022-12-27T07:39:24.659Z,55.82
2022-12-27T07:40:24.644Z,52.07
2022-12-27T07:41:24.647Z,58.66
2022-12-27T07:42:25.661Z,56.78
2022-12-27T07:43:24.628Z,56.45
2022-12-27T07:44:24.617Z,54.41
2022-12-27T07:45:24.605Z,55.32
2022-12-27T07:46:24.618Z,62.50
2022-12-27T07:47:24.624Z,57.74
2022-12-27T07:48:24.584Z,59.24
2022-12-27T07:49:24.574Z,53.02
2022-12-27T07:50:25.049Z,57.93
2022-12-27T07:51:24.562Z,58.03
2022-12-27T07:52:24.595Z,56.70
2022-12-27T07:53:24.550Z,58.01
2022-12-27T07:54:24.549Z,59.40
2022-12-27T07:55:24.528Z,54.15
2022-12-27T07:56:26.675Z,55.38
2022-12-27T07:57:25.548Z,53.13
2022-12-27T07:58:24.515Z,57.63
2022-12-27T07:59:24.507Z,54.47
2022-12-27T08:00:24.482Z,53.68
2022-12-27T08:01:25.594Z,58.20
2022-12-27T08:02:24.590Z,59.69
2022-12-27T08:03:24.556Z,55.48
2022-12-27T08:04:24.463Z,53.40
2022-12-27T08:05:27.893Z,57.68
2022-12-27T08:06:25.467Z,57.49
2022-12-27T08:07:24.469Z,55.42
2022-12-27T08:08:24.436Z,55.88
2022-12-27T08:09:24.428Z,58.79
2022-12-27T08:10:24.410Z,55.17
2022-12-27T08:11:24.408Z,57.24
2022-12-27T08:12:24.403Z,53.89
2022-12-27T08:13:24.413Z,56.32
2022-12-27T08:14:24.392Z,57.19
2022-12-27T08:15:24.370Z,56.78
2022-12-27T08:16:24.446Z,57.48
2022-12-27T08:17:24.350Z,54.14
2022-12-27T08:18:24.374Z,55.88
2022-12-27T08:19:24.342Z,59.21
2022-12-27T08:20:24.336Z,54.91
2022-12-27T08:21:24.334Z,59.11
2022-12-27T08:22:24.317Z,57.00
2022-12-27T08:23:24.324Z,55.93
2022-12-27T08:24:25.297Z,56.12
2022-12-27T08:25:24.305Z,56.84
2022-12-27T08:26:24.296Z,55.76
2022-12-27T08:27:24.287Z,57.92
2022-12-27T08:28:24.301Z,58.78
2022-12-27T08:29:24.265Z,55.99
2022-12-27T08:30:24.256Z,54.74
2022-12-27T08:31:24.281Z,58.20
2022-12-27T08:32:24.243Z,58.43
2022-12-27T08:33:24.254Z,57.44
2022-12-27T08:34:24.225Z,58.07
2022-12-27T08:35:51.721Z,53.92
2022-12-27T08:36:54.101Z,56.86
2022-12-27T08:37:26.197Z,55.08
2022-12-27T08:38:24.216Z,59.72
2022-12-27T08:39:24.187Z,56.17
2022-12-27T08:40:24.178Z,51.70
2022-12-27T08:41:24.180Z,58.43
2022-12-27T08:42:24.175Z,52.71
2022-12-27T08:43:24.178Z,52.72
2022-12-27T08:44:24.165Z,55.85
2022-12-27T08:45:24.132Z,55.92
2022-12-27T08:46:24.148Z,57.60
2022-12-27T08:47:24.131Z,53.78
2022-12-27T08:48:24.210Z,57.08
2022-12-27T08:49:24.101Z,58.28
2022-12-27T08:50:24.099Z,58.79
2022-12-27T08:51:34.276Z,58.53
2022-12-27T08:52:26.081Z,56.03
2022-12-27T08:53:24.096Z,54.34
2022-12-27T08:54:24.063Z,55.24
2022-12-27T08:55:24.059Z,55.63
2022-12-27T08:56:24.070Z,57.29
2022-12-27T08:57:24.055Z,54.94
2022-12-27T08:58:24.071Z,58.88
2022-12-27T08:59:24.038Z,60.28
2022-12-27T09:00:24.032Z,60.50
2022-12-27T09:01:24.070Z,56.28
2022-12-27T09:02:24.114Z,55.01
2022-12-27T09:03:24.030Z,53.83
2022-12-27T09:04:24.018Z,58.65
2022-12-27T09:05:23.977Z,57.69
2022-12-27T09:06:23.993Z,55.39
2022-12-27T09:07:23.970Z,56.08
2022-12-27T09:08:23.969Z,56.45
2022-12-27T09:09:23.976Z,55.62
2022-12-27T09:10:23.945Z,60.40
2022-12-27T09:11:23.943Z,57.16
2022-12-27T09:12:23.927Z,59.76
2022-12-27T09:13:23.922Z,58.71
2022-12-27T09:14:23.947Z,56.16
2022-12-27T09:15:23.926Z,59.42
2022-12-27T09:16:23.893Z,55.82
2022-12-27T09:17:23.887Z,54.35
2022-12-27T09:18:23.907Z,57.46
2022-12-27T09:19:23.900Z,58.72
2022-12-27T09:20:23.931Z,56.48
2022-12-27T09:21:23.861Z,55.52
2022-12-27T09:22:23.856Z,58.78
2022-12-27T09:23:23.841Z,57.37
2022-12-27T09:24:23.858Z,58.94
2022-12-27T09:25:23.844Z,56.66
2022-12-27T09:26:23.818Z,54.28
2022-12-27T09:27:23.807Z,54.66
2022-12-27T09:28:23.801Z,55.68
2022-12-27T09:29:23.817Z,56.23
2022-12-27T09:30:23.832Z,57.02
2022-12-27T09:31:23.820Z,56.16
2022-12-27T09:32:23.769Z,55.56
2022-12-27T09:33:23.765Z,55.50
2022-12-27T09:34:23.786Z,56.84
2022-12-27T09:35:23.757Z,58.33
2022-12-27T09:36:23.742Z,55.47
2022-12-27T09:37:23.740Z,56.77
2022-12-27T09:38:23.725Z,56.78
2022-12-27T09:39:23.742Z,57.68
2022-12-27T09:40:23.711Z,57.29
2022-12-27T09:42:25.595Z,58.71
2022-12-27T09:42:48.637Z,57.09
2022-12-27T09:43:27.725Z,56.47
2022-12-27T09:44:24.694Z,54.80
2022-12-27T09:45:24.671Z,57.16
2022-12-27T09:46:23.689Z,59.37
2022-12-27T09:47:23.664Z,57.01
2022-12-27T09:48:29.263Z,58.79
2022-12-27T09:49:25.687Z,57.83
2022-12-27T09:50:23.646Z,57.07
2022-12-27T09:51:23.632Z,59.00
2022-12-27T09:52:23.630Z,55.02
2022-12-27T09:53:23.613Z,56.91
2022-12-27T09:54:23.629Z,54.55
2022-12-27T09:55:23.611Z,55.58
2022-12-27T09:56:23.586Z,57.76
2022-12-27T09:57:23.594Z,57.39
2022-12-27T09:58:23.576Z,59.31
2022-12-27T09:59:23.600Z,55.91
2022-12-27T10:00:30.221Z,53.98
2022-12-27T10:01:24.733Z,52.88
2022-12-27T10:02:23.705Z,55.86
2022-12-27T10:03:23.539Z,54.76
2022-12-27T10:04:24.234Z,56.66
2022-12-27T10:05:23.668Z,58.56
2022-12-27T10:06:23.514Z,57.54
2022-12-27T10:07:23.516Z,56.49
2022-12-27T10:08:23.498Z,55.78
2022-12-27T10:09:23.489Z,56.00
2022-12-27T10:10:23.515Z,59.86
2022-12-27T10:11:23.500Z,58.25
2022-12-27T10:12:29.630Z,58.63
2022-12-27T10:13:25.476Z,58.25
2022-12-27T10:14:23.463Z,56.64
2022-12-27T10:15:23.474Z,61.15
2022-12-27T10:16:23.472Z,56.27
2022-12-27T10:17:23.436Z,56.24
2022-12-27T10:18:23.427Z,54.64
2022-12-27T10:19:23.422Z,58.18
2022-12-27T10:20:23.442Z,57.41
2022-12-27T10:21:23.407Z,56.33
2022-12-27T10:22:23.399Z,56.77
2022-12-27T10:23:23.382Z,56.45
2022-12-27T10:24:23.394Z,57.16
2022-12-27T10:25:23.394Z,56.63
2022-12-27T10:26:23.352Z,53.52
2022-12-27T10:27:23.364Z,54.88
2022-12-27T10:28:23.371Z,55.74
2022-12-27T10:29:23.350Z,56.34
2022-12-27T10:30:23.366Z,54.71
2022-12-27T10:31:23.355Z,54.82
2022-12-27T10:32:23.310Z,54.16
2022-12-27T10:33:23.329Z,56.40
2022-12-27T10:34:23.328Z,54.19
2022-12-27T10:35:23.308Z,54.26
2022-12-27T10:36:23.294Z,59.00
2022-12-27T10:37:23.281Z,55.82
2022-12-27T10:38:23.260Z,58.20
2022-12-27T10:39:23.258Z,62.00
2022-12-27T10:40:23.269Z,58.49
2022-12-27T10:41:23.244Z,56.04
2022-12-27T10:42:23.227Z,57.58
2022-12-27T10:43:24.229Z,56.74
2022-12-27T10:44:23.223Z,56.67
2022-12-27T10:45:23.240Z,56.01
2022-12-27T10:46:26.328Z,57.19
2022-12-27T10:47:25.197Z,54.40
2022-12-27T10:48:23.187Z,58.12
2022-12-27T10:49:23.184Z,53.64
2022-12-27T10:50:23.204Z,57.88
2022-12-27T10:51:23.167Z,54.30
2022-12-27T10:52:23.204Z,54.80
2022-12-27T10:53:23.223Z,54.57
2022-12-27T10:54:23.162Z,55.49
2022-12-27T10:55:23.167Z,54.93
2022-12-27T10:56:23.131Z,60.99
2022-12-27T10:57:23.128Z,54.53
2022-12-27T10:58:23.113Z,55.10
2022-12-27T10:59:23.112Z,57.05
2022-12-27T11:00:23.140Z,55.16
2022-12-27T11:01:23.193Z,54.34
2022-12-27T11:02:23.201Z,55.15
2022-12-27T11:03:23.074Z,57.32
2022-12-27T11:04:23.080Z,55.82
2022-12-27T11:05:23.064Z,55.92
2022-12-27T11:06:23.089Z,54.57
2022-12-27T11:07:23.074Z,52.36
2022-12-27T11:08:23.033Z,54.43
2022-12-27T11:09:23.024Z,54.32
2022-12-27T11:10:23.048Z,55.91
2022-12-27T11:11:23.011Z,57.13
2022-12-27T11:12:23.008Z,55.10
2022-12-27T11:13:22.995Z,52.95
2022-12-27T11:14:22.997Z,56.58
2022-12-27T11:15:22.980Z,55.53
2022-12-27T11:16:23.021Z,59.31
2022-12-27T11:17:22.971Z,56.12
2022-12-27T11:18:22.969Z,54.67
2022-12-27T11:19:22.952Z,55.82
2022-12-27T11:20:22.964Z,53.59
2022-12-27T11:21:27.764Z,55.69
2022-12-27T11:22:24.932Z,57.37
2022-12-27T11:23:22.929Z,55.14
2022-12-27T11:24:22.928Z,54.39
2022-12-27T11:25:22.910Z,56.94
2022-12-27T11:26:22.933Z,57.11
2022-12-27T11:27:22.887Z,55.78
2022-12-27T11:28:22.887Z,55.48
2022-12-27T11:29:22.889Z,54.78
2022-12-27T11:30:22.867Z,56.05
2022-12-27T11:31:22.902Z,60.69
2022-12-27T11:32:22.855Z,57.26
2022-12-27T11:33:25.197Z,57.54
2022-12-27T11:34:23.835Z,57.64
2022-12-27T11:35:22.825Z,55.04
2022-12-27T11:36:22.847Z,54.79
2022-12-27T11:37:22.815Z,54.81
2022-12-27T11:38:22.811Z,53.35
2022-12-27T11:39:22.799Z,55.23
2022-12-27T11:40:22.792Z,55.29
2022-12-27T11:41:27.709Z,58.06
2022-12-27T11:42:24.776Z,55.47
2022-12-27T11:43:22.764Z,54.75
2022-12-27T11:44:22.756Z,57.36
2022-12-27T11:45:22.752Z,56.95
2022-12-27T11:46:22.805Z,56.87
2022-12-27T11:47:22.754Z,55.43
2022-12-27T11:48:22.729Z,55.53
2022-12-27T11:49:22.716Z,54.30
2022-12-27T11:50:22.715Z,57.70
2022-12-27T11:51:22.731Z,56.74
2022-12-27T11:52:22.703Z,56.77
2022-12-27T11:53:22.700Z,57.42
2022-12-27T11:54:22.691Z,56.50
2022-12-27T11:55:22.700Z,59.70
2022-12-27T11:56:22.678Z,56.17
2022-12-27T11:57:22.709Z,62.20
2022-12-27T11:58:22.663Z,55.38
2022-12-27T11:59:22.652Z,56.22
2022-12-27T12:00:22.648Z,55.96
2022-12-27T12:01:22.662Z,58.55
2022-12-27T12:02:22.698Z,57.74
2022-12-27T12:03:22.632Z,59.71
2022-12-27T12:04:22.612Z,61.22
2022-12-27T12:05:22.612Z,64.28
2022-12-27T12:06:22.591Z,59.12
2022-12-27T12:07:22.612Z,56.18
2022-12-27T12:08:22.599Z,56.70
2022-12-27T12:09:22.569Z,53.89
2022-12-27T12:10:22.572Z,53.73
2022-12-27T12:11:22.570Z,59.01
2022-12-27T12:12:22.575Z,56.73
2022-12-27T12:13:22.544Z,56.60
2022-12-27T12:14:22.535Z,58.22
2022-12-27T12:15:22.529Z,54.89
2022-12-27T12:16:22.531Z,55.77
2022-12-27T12:17:22.539Z,57.17
2022-12-27T12:18:22.509Z,58.57
2022-12-27T12:19:22.496Z,53.56
2022-12-27T12:20:22.492Z,55.47
2022-12-27T12:21:22.491Z,58.07
2022-12-27T12:22:22.504Z,58.10
2022-12-27T12:23:22.472Z,57.04
2022-12-27T12:24:22.473Z,55.89
2022-12-27T12:25:22.474Z,59.40
2022-12-27T12:26:22.455Z,56.89
2022-12-27T12:27:22.465Z,55.42
2022-12-27T12:28:55.866Z,55.86
2022-12-27T12:29:24.418Z,56.36
2022-12-27T12:30:27.086Z,60.25
2022-12-27T12:31:24.468Z,58.90
2022-12-27T12:32:22.494Z,54.38
2022-12-27T12:33:22.390Z,51.30
2022-12-27T12:34:22.381Z,56.48
2022-12-27T12:35:22.371Z,53.57
2022-12-27T12:36:22.376Z,61.29
2022-12-27T12:37:22.492Z,60.51
2022-12-27T12:38:22.351Z,61.32
2022-12-27T12:39:22.346Z,60.33
2022-12-27T12:40:22.353Z,59.12
2022-12-27T12:41:22.344Z,59.18
2022-12-27T12:42:22.515Z,60.03
2022-12-27T12:43:22.325Z,55.26
2022-12-27T12:44:22.312Z,56.42
2022-12-27T12:45:22.302Z,60.18
2022-12-27T12:46:22.328Z,56.27
2022-12-27T12:47:22.526Z,58.86
2022-12-27T12:48:22.300Z,55.83
2022-12-27T12:49:22.286Z,55.50
2022-12-27T12:50:22.272Z,57.44
2022-12-27T12:51:22.259Z,57.61
2022-12-27T12:52:22.298Z,58.92